createdAt,value
2018-09-20T00:00:10.280Z,66.20
2018-09-20T00:02:37.589Z,65.90
2018-09-20T00:05:04.788Z,66.80
2018-09-20T00:07:31.932Z,67.50
2018-09-20T00:10:06.058Z,67.90
2018-09-20T00:12:33.204Z,68.20
2018-09-20T00:15:00.364Z,68.30
2018-09-20T00:17:27.532Z,68.50
2018-09-20T00:19:54.820Z,68.60
2018-09-20T00:22:21.968Z,68.90
2018-09-20T00:24:49.168Z,68.80
2018-09-20T00:27:16.473Z,69.20
2018-09-20T00:29:43.632Z,69.00
2018-09-20T00:32:10.792Z,69.40
2018-09-20T00:34:38.029Z,69.50
2018-09-20T00:37:05.220Z,69.70
2018-09-20T00:39:32.389Z,69.60
2018-09-20T00:41:59.554Z,69.80
2018-09-20T00:44:26.741Z,69.80
2018-09-20T00:46:53.904Z,69.90
2018-09-20T00:49:21.057Z,70.00
2018-09-20T00:51:48.240Z,69.90
2018-09-20T00:54:15.408Z,69.70
2018-09-20T00:56:42.560Z,69.80
2018-09-20T00:59:09.740Z,69.60
2018-09-20T01:01:36.925Z,69.60
2018-09-20T01:04:04.116Z,69.80
2018-09-20T01:06:31.292Z,69.70
2018-09-20T01:08:58.457Z,69.70
2018-09-20T01:11:25.664Z,69.70
2018-09-20T01:13:52.881Z,69.50
2018-09-20T01:16:20.053Z,69.60
2018-09-20T01:18:47.237Z,69.60
2018-09-20T01:21:14.420Z,69.60
2018-09-20T01:23:41.635Z,69.50
2018-09-20T01:26:08.844Z,69.70
2018-09-20T01:28:35.988Z,69.70
2018-09-20T01:31:03.183Z,69.60
2018-09-20T01:33:30.335Z,69.60
2018-09-20T01:35:57.497Z,69.50
2018-09-20T01:38:24.672Z,69.40
2018-09-20T01:40:51.896Z,69.20
2018-09-20T01:43:19.052Z,69.10
2018-09-20T01:48:20.152Z,68.80
2018-09-20T01:50:47.317Z,68.60
2018-09-20T01:53:14.472Z,69.00
2018-09-20T01:55:41.664Z,69.00
2018-09-20T01:58:08.828Z,68.60
2018-09-20T02:00:35.976Z,68.90
2018-09-20T02:03:03.173Z,69.10
2018-09-20T02:05:30.336Z,69.10
2018-09-20T02:07:57.487Z,69.30
2018-09-20T02:10:24.772Z,69.30
2018-09-20T02:12:51.915Z,69.40
2018-09-20T02:15:19.092Z,69.70
2018-09-20T02:17:46.348Z,69.50
2018-09-20T02:20:13.520Z,68.20
2018-09-20T02:22:40.668Z,67.80
2018-09-20T02:25:07.863Z,67.70
2018-09-20T02:27:35.014Z,68.40
2018-09-20T02:30:02.258Z,69.30
2018-09-20T02:32:29.446Z,69.70
2018-09-20T02:34:56.642Z,69.70
2018-09-20T02:37:23.809Z,70.10
2018-09-20T02:39:50.991Z,70.30
2018-09-20T02:42:18.244Z,71.00
2018-09-20T02:44:45.462Z,70.50
2018-09-20T02:47:12.597Z,70.90
2018-09-20T02:49:39.758Z,70.60
2018-09-20T02:52:06.965Z,70.10
2018-09-20T02:54:34.120Z,70.50
2018-09-20T02:57:01.429Z,71.10
2018-09-20T02:59:28.590Z,72.00
2018-09-20T03:01:55.760Z,72.80
2018-09-20T03:04:22.925Z,73.50
2018-09-20T03:06:50.081Z,73.90
2018-09-20T03:09:17.236Z,73.70
2018-09-20T03:11:44.436Z,73.80
2018-09-20T03:14:11.592Z,73.70
2018-09-20T03:16:38.789Z,73.40
2018-09-20T03:19:05.953Z,73.30
2018-09-20T03:21:33.124Z,73.10
2018-09-20T03:24:00.329Z,73.00
2018-09-20T03:26:27.566Z,72.10
2018-09-20T03:28:54.724Z,70.50
2018-09-20T03:31:21.897Z,70.40
2018-09-20T03:33:49.053Z,70.40
2018-09-20T03:36:16.213Z,71.00
2018-09-20T03:38:43.389Z,71.50
2018-09-20T03:41:10.555Z,72.10
2018-09-20T03:43:37.749Z,71.70
2018-09-20T03:46:05.164Z,72.00
2018-09-20T03:48:32.432Z,71.70
2018-09-20T03:50:59.587Z,71.60
2018-09-20T03:53:26.907Z,72.10
2018-09-20T03:55:54.071Z,72.00
2018-09-20T03:58:21.418Z,72.70
2018-09-20T04:00:48.590Z,73.70
2018-09-20T04:03:15.762Z,73.70
2018-09-20T04:05:42.940Z,73.90
2018-09-20T04:08:10.113Z,73.80
2018-09-20T04:10:37.273Z,73.40
2018-09-20T04:13:04.488Z,73.80
2018-09-20T04:15:31.636Z,74.40
2018-09-20T04:17:58.803Z,75.00
2018-09-20T04:20:25.956Z,75.30
2018-09-20T04:22:53.240Z,75.50
2018-09-20T04:25:20.412Z,75.50
2018-09-20T04:27:47.568Z,75.50
2018-09-20T04:30:14.744Z,75.20
2018-09-20T04:32:41.899Z,74.90
2018-09-20T04:35:09.064Z,74.70
2018-09-20T04:37:36.228Z,73.60
2018-09-20T04:40:03.473Z,73.90
2018-09-20T04:42:30.638Z,74.50
2018-09-20T04:45:36.341Z,74.70
2018-09-20T04:48:03.668Z,75.00
2018-09-20T04:50:30.868Z,75.40
2018-09-20T04:52:58.032Z,75.60
2018-09-20T04:55:25.208Z,76.10
2018-09-20T04:57:52.468Z,76.50
2018-09-20T05:00:19.688Z,76.70
2018-09-20T05:05:20.693Z,77.30
2018-09-20T05:07:47.870Z,77.50
2018-09-20T05:10:15.054Z,77.70
2018-09-20T05:12:42.264Z,76.90
2018-09-20T05:15:16.225Z,77.10
2018-09-20T05:17:43.380Z,77.40
2018-09-20T05:20:10.584Z,77.70
2018-09-20T05:22:37.729Z,77.50
2018-09-20T05:25:04.942Z,77.50
2018-09-20T05:27:32.101Z,77.30
2018-09-20T05:29:59.276Z,77.30
2018-09-20T05:32:26.448Z,76.80
2018-09-20T05:34:53.636Z,76.50
2018-09-20T05:37:20.788Z,76.30
2018-09-20T05:39:47.956Z,76.60
2018-09-20T05:42:15.114Z,76.90
2018-09-20T05:44:42.329Z,77.30
2018-09-20T05:47:09.539Z,77.60
2018-09-20T05:49:36.708Z,77.60
2018-09-20T05:52:03.996Z,77.70
2018-09-20T05:54:31.157Z,78.10
2018-09-20T05:56:58.449Z,78.10
2018-09-20T05:59:25.793Z,78.20
2018-09-20T06:01:52.956Z,75.80
2018-09-20T06:04:20.144Z,76.80
2018-09-20T06:06:47.312Z,77.60
2018-09-20T06:09:14.556Z,77.70
2018-09-20T06:11:41.839Z,78.10
2018-09-20T06:14:08.993Z,78.00
2018-09-20T06:16:36.233Z,78.20
2018-09-20T06:19:03.492Z,78.60
2018-09-20T06:21:30.732Z,79.00
2018-09-20T06:23:57.917Z,79.20
2018-09-20T06:26:25.084Z,79.30
2018-09-20T06:28:52.329Z,79.00
2018-09-20T06:31:19.534Z,79.00
2018-09-20T06:33:46.708Z,79.20
2018-09-20T06:36:13.971Z,79.50
2018-09-20T06:38:41.133Z,79.40
2018-09-20T06:41:08.410Z,79.00
2018-09-20T06:43:35.509Z,78.40
2018-09-20T06:46:02.691Z,78.40
2018-09-20T06:48:29.890Z,78.50
2018-09-20T06:50:57.073Z,78.50
2018-09-20T06:53:24.228Z,79.20
2018-09-20T06:55:51.411Z,79.10
2018-09-20T06:58:18.596Z,79.30
2018-09-20T07:00:45.812Z,79.30
2018-09-20T07:03:13.151Z,79.20
2018-09-20T07:05:40.312Z,79.20
2018-09-20T07:08:07.502Z,79.20
2018-09-20T07:10:34.677Z,79.00
2018-09-20T07:13:01.925Z,79.10
2018-09-20T07:15:29.132Z,78.90
2018-09-20T07:17:56.308Z,79.00
2018-09-20T07:20:23.504Z,78.10
2018-09-20T07:22:50.704Z,78.40
2018-09-20T07:25:17.953Z,77.60
2018-09-20T07:27:45.061Z,76.50
2018-09-20T07:30:12.260Z,76.40
2018-09-20T07:32:39.535Z,76.10
2018-09-20T07:35:06.840Z,76.10
2018-09-20T07:37:34.006Z,75.90
2018-09-20T07:40:01.200Z,75.80
2018-09-20T07:42:28.386Z,75.80
2018-09-20T07:44:55.553Z,75.00
2018-09-20T07:47:22.731Z,75.30
2018-09-20T07:49:49.894Z,75.70
2018-09-20T07:52:17.067Z,75.70
2018-09-20T07:54:44.240Z,74.70
2018-09-20T07:57:11.404Z,75.00
2018-09-20T07:59:38.565Z,73.80
2018-09-20T08:02:05.914Z,73.20
2018-09-20T08:04:32.909Z,72.50
2018-09-20T08:07:00.090Z,72.60
2018-09-20T08:09:27.236Z,72.30
2018-09-20T08:11:54.432Z,72.00
2018-09-20T08:14:21.599Z,72.50
2018-09-20T08:16:48.784Z,72.10
2018-09-20T08:19:15.960Z,72.00
2018-09-20T08:21:43.153Z,71.20
2018-09-20T08:24:10.349Z,70.90
2018-09-20T08:26:37.520Z,70.00
2018-09-20T08:29:04.720Z,70.20
2018-09-20T08:31:31.883Z,70.10
2018-09-20T08:33:59.048Z,69.80
2018-09-20T08:36:26.344Z,69.10
2018-09-20T08:38:53.544Z,69.00
2018-09-20T08:41:20.703Z,68.60
2018-09-20T08:43:47.907Z,68.20
2018-09-20T08:46:15.060Z,67.60
2018-09-20T08:48:42.236Z,67.60
2018-09-20T08:51:09.483Z,66.90
2018-09-20T08:53:36.611Z,66.90
2018-09-20T08:56:03.802Z,66.20
2018-09-20T08:58:31.929Z,65.80
2018-09-20T09:01:00.290Z,65.80
2018-09-20T09:03:27.460Z,64.80
2018-09-20T09:05:54.728Z,64.00
2018-09-20T09:08:21.897Z,63.60
2018-09-20T09:10:49.076Z,63.40
2018-09-20T09:13:16.232Z,62.60
2018-09-20T09:15:43.409Z,63.10
2018-09-20T09:18:10.592Z,62.00
2018-09-20T09:20:44.672Z,62.70
2018-09-20T09:23:11.840Z,61.50
2018-09-20T09:25:39.012Z,61.80
2018-09-20T09:28:06.247Z,60.70
2018-09-20T09:30:33.442Z,60.50
2018-09-20T09:33:00.626Z,59.70
2018-09-20T09:35:27.829Z,59.60
2018-09-20T09:37:55.012Z,60.60
2018-09-20T09:40:22.195Z,58.50
2018-09-20T09:42:49.356Z,58.80
2018-09-20T09:45:16.520Z,59.00
2018-09-20T09:47:43.688Z,58.80
2018-09-20T09:50:10.852Z,58.60
2018-09-20T09:52:38.053Z,58.00
2018-09-20T09:55:05.269Z,57.20
2018-09-20T09:57:32.621Z,56.20
2018-09-20T09:59:59.795Z,55.90
2018-09-20T10:02:26.972Z,54.30
2018-09-20T10:04:55.100Z,54.60
2018-09-20T10:07:22.281Z,54.70
2018-09-20T10:09:49.432Z,55.50
2018-09-20T10:12:16.595Z,54.60
2018-09-20T10:14:43.768Z,54.10
2018-09-20T10:17:10.920Z,54.30
2018-09-20T10:19:38.092Z,54.40
2018-09-20T10:22:05.292Z,54.50
2018-09-20T10:24:32.477Z,54.70
2018-09-20T10:26:59.654Z,55.20
2018-09-20T10:29:26.838Z,55.20
2018-09-20T10:31:54.036Z,55.30
2018-09-20T10:34:21.208Z,54.90
2018-09-20T10:36:48.412Z,54.70
2018-09-20T10:39:15.565Z,54.30
2018-09-20T10:41:49.553Z,53.30
2018-09-20T10:44:16.745Z,51.90
2018-09-20T10:46:44.044Z,52.70
2018-09-20T10:49:11.196Z,52.70
2018-09-20T10:51:38.448Z,51.80
2018-09-20T10:54:05.628Z,51.10
2018-09-20T10:56:33.240Z,51.40
2018-09-20T10:59:00.404Z,50.20
2018-09-20T11:01:27.592Z,50.50
2018-09-20T11:03:54.780Z,51.60
2018-09-20T11:06:22.151Z,52.50
2018-09-20T11:08:49.304Z,51.40
2018-09-20T11:11:16.486Z,51.10
2018-09-20T11:13:43.640Z,51.60
2018-09-20T11:16:11.060Z,51.50
2018-09-20T11:18:38.241Z,49.80
2018-09-20T11:21:05.460Z,50.50
2018-09-20T11:23:39.384Z,50.70
2018-09-20T11:26:06.658Z,49.20
2018-09-20T11:28:33.834Z,49.60
2018-09-20T11:31:01.022Z,49.50
2018-09-20T11:33:28.180Z,49.30
2018-09-20T11:35:55.352Z,49.50
2018-09-20T11:38:22.517Z,48.70
2018-09-20T11:40:49.848Z,48.20
2018-09-20T11:43:17.016Z,48.10
2018-09-20T11:45:44.170Z,49.10
2018-09-20T11:48:11.344Z,48.40
2018-09-20T11:50:45.160Z,47.60
2018-09-20T11:53:12.338Z,47.40
2018-09-20T11:55:39.504Z,47.10
2018-09-20T11:58:08.541Z,47.20
2018-09-20T12:00:35.992Z,45.40
2018-09-20T12:03:03.568Z,44.90
2018-09-20T12:05:30.720Z,44.50
2018-09-20T12:07:57.888Z,44.10
2018-09-20T12:10:25.067Z,44.00
2018-09-20T12:12:52.246Z,44.00
2018-09-20T12:15:19.420Z,41.30
2018-09-20T12:17:46.606Z,38.70
2018-09-20T12:20:13.773Z,38.60
2018-09-20T12:22:40.952Z,38.30
2018-09-20T12:25:08.121Z,38.60
2018-09-20T12:27:35.322Z,39.50
2018-09-20T12:30:02.685Z,38.20
2018-09-20T12:32:29.876Z,38.00
2018-09-20T12:34:57.171Z,37.80
2018-09-20T12:37:30.120Z,37.90
2018-09-20T12:39:57.252Z,39.30
2018-09-20T12:42:24.414Z,37.60
2018-09-20T12:44:59.072Z,39.70
2018-09-20T12:47:26.240Z,37.90
2018-09-20T12:49:53.432Z,38.20
2018-09-20T12:52:20.598Z,38.50
2018-09-20T12:54:47.842Z,36.20
2018-09-20T12:57:15.008Z,36.90
2018-09-20T12:59:42.180Z,37.20
2018-09-20T13:02:09.460Z,37.70
2018-09-20T13:04:36.612Z,38.00
2018-09-20T13:07:03.784Z,38.90
2018-09-20T13:09:30.962Z,38.50
2018-09-20T13:11:58.128Z,37.80
2018-09-20T13:14:25.328Z,37.20
2018-09-20T13:16:52.476Z,36.30
2018-09-20T13:19:19.668Z,38.00
2018-09-20T13:21:46.840Z,37.60
2018-09-20T13:24:20.779Z,37.10
2018-09-20T13:26:47.998Z,37.10
2018-09-20T13:29:15.188Z,36.70
2018-09-20T13:31:42.519Z,37.00
2018-09-20T13:34:09.637Z,36.70
2018-09-20T13:36:36.845Z,37.10
2018-09-20T13:39:07.628Z,36.70
2018-09-20T13:41:34.830Z,36.80
2018-09-20T13:44:02.009Z,37.00
2018-09-20T13:46:29.204Z,36.70
2018-09-20T13:48:56.377Z,37.60
2018-09-20T13:51:23.528Z,38.50
2018-09-20T13:53:50.695Z,37.70
2018-09-20T13:56:17.898Z,37.50
2018-09-20T13:58:47.133Z,38.40
2018-09-20T14:01:14.686Z,37.70
2018-09-20T14:03:41.954Z,37.00
2018-09-20T14:06:09.090Z,36.60
2018-09-20T14:08:36.272Z,36.90
2018-09-20T14:11:03.486Z,38.00
2018-09-20T14:13:30.641Z,36.20
2018-09-20T14:15:57.856Z,37.70
2018-09-20T14:18:25.026Z,36.60
2018-09-20T14:20:52.217Z,37.10
2018-09-20T14:23:19.376Z,37.60
2018-09-20T14:25:46.560Z,37.40
2018-09-20T14:28:13.744Z,37.80
2018-09-20T14:30:40.981Z,37.70
2018-09-20T14:33:08.175Z,39.70
2018-09-20T14:35:35.344Z,39.00
2018-09-20T14:38:02.575Z,38.70
2018-09-20T14:40:29.755Z,38.70
2018-09-20T14:42:56.968Z,39.30
2018-09-20T14:45:24.198Z,39.40
2018-09-20T14:47:51.368Z,38.90
2018-09-20T14:50:19.350Z,39.30
2018-09-20T14:52:46.595Z,39.60
2018-09-20T14:55:13.786Z,39.70
2018-09-20T14:57:41.608Z,40.50
2018-09-20T15:00:08.942Z,41.00
2018-09-20T15:02:36.102Z,41.00
2018-09-20T15:05:03.332Z,41.20
2018-09-20T15:07:30.508Z,41.40
2018-09-20T15:09:57.680Z,40.80
2018-09-20T15:12:24.840Z,40.30
2018-09-20T15:14:52.112Z,40.10
2018-09-20T15:17:19.276Z,41.20
2018-09-20T15:19:46.464Z,41.00
2018-09-20T15:22:13.644Z,40.70
2018-09-20T15:24:40.914Z,41.40
2018-09-20T15:27:08.022Z,41.70
2018-09-20T15:29:35.187Z,41.40
2018-09-20T15:32:02.376Z,42.20
2018-09-20T15:34:29.548Z,42.10
2018-09-20T15:36:56.809Z,42.00
2018-09-20T15:39:23.969Z,42.30
2018-09-20T15:41:51.152Z,43.00
2018-09-20T15:44:18.350Z,41.90
2018-09-20T15:46:45.524Z,41.90
2018-09-20T15:49:12.700Z,42.00
2018-09-20T15:51:39.879Z,42.40
2018-09-20T15:54:07.060Z,43.00
2018-09-20T15:56:34.345Z,42.90
2018-09-20T15:59:01.517Z,42.80
2018-09-20T16:01:28.700Z,42.70
2018-09-20T16:03:55.868Z,43.10
2018-09-20T16:06:23.316Z,43.50
2018-09-20T16:11:24.412Z,44.10
2018-09-20T16:13:51.599Z,44.00
2018-09-20T16:16:18.805Z,44.20
2018-09-20T16:18:46.010Z,44.00
2018-09-20T16:21:13.205Z,44.10
2018-09-20T16:23:41.425Z,44.30
2018-09-20T16:26:08.588Z,44.40
2018-09-20T16:28:49.424Z,44.60
2018-09-20T16:31:29.961Z,45.20
2018-09-20T16:37:22.421Z,45.90
2018-09-20T16:39:50.888Z,44.90
2018-09-20T16:42:21.044Z,45.50
2018-09-20T16:44:48.216Z,45.60
2018-09-20T16:47:15.386Z,46.20
2018-09-20T16:49:42.546Z,46.60
2018-09-20T16:52:09.720Z,46.60
2018-09-20T16:54:36.909Z,47.20
2018-09-20T16:57:04.096Z,47.30
2018-09-20T16:59:31.260Z,47.50
2018-09-20T17:01:58.420Z,47.60
2018-09-20T17:04:25.585Z,47.40
2018-09-20T17:06:52.836Z,48.20
2018-09-20T17:09:26.852Z,48.30
2018-09-20T17:11:54.088Z,48.60
2018-09-20T17:14:21.290Z,48.60
2018-09-20T17:16:48.449Z,49.50
2018-09-20T17:19:15.641Z,50.70
2018-09-20T17:21:42.821Z,51.00
2018-09-20T17:24:09.986Z,51.60
2018-09-20T17:26:37.236Z,51.60
2018-09-20T17:29:04.484Z,52.30
2018-09-20T17:31:31.669Z,52.50
2018-09-20T17:33:58.957Z,53.30
2018-09-20T17:36:26.484Z,54.60
2018-09-20T17:38:54.472Z,55.10
2018-09-20T17:41:25.241Z,54.60
2018-09-20T17:44:01.109Z,54.60
2018-09-20T17:46:28.264Z,54.60
2018-09-20T17:48:55.432Z,55.30
2018-09-20T17:51:22.824Z,55.60
2018-09-20T17:53:50.192Z,56.20
2018-09-20T17:56:17.872Z,56.10
2018-09-20T17:58:45.592Z,55.80
2018-09-20T18:01:12.777Z,56.20
2018-09-20T18:03:40.036Z,56.30
2018-09-20T18:06:07.255Z,56.30
2018-09-20T18:08:34.515Z,56.50
2018-09-20T18:11:02.129Z,57.50
2018-09-20T18:13:29.288Z,57.30
2018-09-20T18:15:56.505Z,57.30
2018-09-20T18:18:23.837Z,57.40
2018-09-20T18:20:50.933Z,57.60
2018-09-20T18:23:18.099Z,57.50
2018-09-20T18:25:45.293Z,57.40
2018-09-20T18:28:12.544Z,57.70
2018-09-20T18:30:39.764Z,57.80
2018-09-20T18:33:06.950Z,58.80
2018-09-20T18:35:34.405Z,58.00
2018-09-20T18:38:01.686Z,58.10
2018-09-20T18:40:28.879Z,57.50
2018-09-20T18:42:56.012Z,58.00
2018-09-20T18:45:23.184Z,58.00
2018-09-20T18:47:50.362Z,58.20
2018-09-20T18:50:17.612Z,58.30
2018-09-20T18:52:44.767Z,58.90
2018-09-20T18:55:11.944Z,57.70
2018-09-20T19:00:13.016Z,58.30
2018-09-20T19:02:47.200Z,58.30
2018-09-20T19:05:14.409Z,57.90
2018-09-20T19:07:41.564Z,58.40
2018-09-20T19:10:08.743Z,58.50
2018-09-20T19:12:36.076Z,58.60
2018-09-20T19:15:03.981Z,59.30
2018-09-20T19:17:31.158Z,58.40
2018-09-20T19:19:58.373Z,58.30
2018-09-20T19:22:25.528Z,55.40
2018-09-20T19:24:52.813Z,55.20
2018-09-20T19:27:19.966Z,56.40
2018-09-20T19:29:47.137Z,57.30
2018-09-20T19:32:14.316Z,58.40
2018-09-20T19:34:41.552Z,59.00
2018-09-20T19:37:08.725Z,59.20
2018-09-20T19:39:35.904Z,59.50
2018-09-20T19:42:03.072Z,60.00
2018-09-20T19:44:30.290Z,60.30
2018-09-20T19:46:57.520Z,60.60
2018-09-20T19:49:24.696Z,60.60
2018-09-20T19:51:51.944Z,60.70
2018-09-20T19:54:19.842Z,60.70
2018-09-20T19:56:47.056Z,60.90
2018-09-20T19:59:14.241Z,61.00
2018-09-20T20:01:41.432Z,61.10
2018-09-20T20:04:08.588Z,61.10
2018-09-20T20:06:35.872Z,61.20
2018-09-20T20:09:05.848Z,61.60
2018-09-20T20:11:33.080Z,61.50
2018-09-20T20:14:00.244Z,61.80
2018-09-20T20:16:27.407Z,61.60
2018-09-20T20:18:54.633Z,62.10
2018-09-20T20:21:21.824Z,62.10
2018-09-20T20:23:48.994Z,62.20
2018-09-20T20:26:16.244Z,62.20
2018-09-20T20:28:43.609Z,61.90
2018-09-20T20:31:10.712Z,61.80
2018-09-20T20:33:37.868Z,61.80
2018-09-20T20:36:05.063Z,61.60
2018-09-20T20:38:32.217Z,61.50
2018-09-20T20:40:59.550Z,61.50
2018-09-20T20:43:26.801Z,61.60
2018-09-20T20:45:53.996Z,61.90
2018-09-20T20:48:21.187Z,62.00
2018-09-20T20:50:48.332Z,62.10
2018-09-20T20:53:15.589Z,62.20
2018-09-20T20:55:42.770Z,62.40
2018-09-20T20:58:09.953Z,62.40
2018-09-20T21:00:37.278Z,62.60
2018-09-20T21:03:04.461Z,62.70
2018-09-20T21:05:31.623Z,62.90
2018-09-20T21:07:58.799Z,63.40
2018-09-20T21:10:25.962Z,63.40
2018-09-20T21:12:53.162Z,63.60
2018-09-20T21:15:20.316Z,63.60
2018-09-20T21:17:47.494Z,63.70
2018-09-20T21:20:14.668Z,64.20
2018-09-20T21:22:41.853Z,64.40
2018-09-20T21:25:09.008Z,64.50
2018-09-20T21:27:36.252Z,64.80
2018-09-20T21:30:03.581Z,64.90
2018-09-20T21:32:30.820Z,64.90
2018-09-20T21:34:57.972Z,65.00
2018-09-20T21:37:25.132Z,65.20
2018-09-20T21:39:52.341Z,65.30
2018-09-20T21:42:19.523Z,65.40
2018-09-20T21:44:46.684Z,65.40
2018-09-20T21:47:14.224Z,65.70
2018-09-20T21:49:41.391Z,65.90
2018-09-20T21:52:08.556Z,66.00
2018-09-20T21:57:09.829Z,66.10
2018-09-20T21:59:37.010Z,66.10
2018-09-20T22:02:04.172Z,66.30
2018-09-20T22:04:32.268Z,66.20
2018-09-20T22:07:00.012Z,65.20
2018-09-20T22:09:27.487Z,65.40
2018-09-20T22:11:54.671Z,66.10
2018-09-20T22:14:21.854Z,66.70
2018-09-20T22:16:49.025Z,67.00
2018-09-20T22:19:16.210Z,67.10
2018-09-20T22:21:43.368Z,67.20
2018-09-20T22:24:10.571Z,67.20
2018-09-20T22:26:37.761Z,67.00
2018-09-20T22:29:04.988Z,67.00
2018-09-20T22:31:32.160Z,66.60
2018-09-20T22:33:59.333Z,66.70
2018-09-20T22:36:33.186Z,66.80
2018-09-20T22:39:00.423Z,66.90
2018-09-20T22:41:27.604Z,67.20
2018-09-20T22:43:54.768Z,67.40
2018-09-20T22:46:21.965Z,67.20
2018-09-20T22:48:49.138Z,67.20
2018-09-20T22:51:16.462Z,67.30
2018-09-20T22:53:43.628Z,67.20
2018-09-20T22:56:10.802Z,67.30
2018-09-20T22:58:37.988Z,67.30
2018-09-20T23:01:05.400Z,67.40
2018-09-20T23:03:32.560Z,67.30
2018-09-20T23:05:59.731Z,67.20
2018-09-20T23:08:26.907Z,67.20
2018-09-20T23:10:54.135Z,67.40
2018-09-20T23:13:21.300Z,67.80
2018-09-20T23:15:48.451Z,68.00
2018-09-20T23:18:15.603Z,68.20
2018-09-20T23:20:42.815Z,68.40
2018-09-20T23:23:09.979Z,68.50
2018-09-20T23:25:37.292Z,68.40
2018-09-20T23:28:04.460Z,68.40
2018-09-20T23:30:31.643Z,68.30
2018-09-20T23:32:58.825Z,68.70
2018-09-20T23:35:25.985Z,68.80
2018-09-20T23:37:53.131Z,69.10
2018-09-20T23:40:20.324Z,69.80
2018-09-20T23:42:47.521Z,70.00
2018-09-20T23:45:14.703Z,70.20
2018-09-20T23:47:41.863Z,70.30
2018-09-20T23:50:09.119Z,70.30
2018-09-20T23:52:36.356Z,70.50
2018-09-20T23:55:03.580Z,70.70
2018-09-20T23:57:30.733Z,70.60
2018-09-20T23:59:57.900Z,71.00
